createdAt,value
2022-12-22T00:01:11.968Z,2.43
2022-12-22T00:06:32.622Z,2.51
2022-12-22T00:11:54.860Z,2.44
2022-12-22T00:17:21.918Z,2.51
2022-12-22T00:22:44.442Z,2.54
2022-12-22T00:28:06.683Z,2.51
2022-12-22T00:33:31.927Z,2.69
2022-12-22T00:38:52.217Z,2.71
2022-12-22T00:44:14.272Z,2.73
2022-12-22T00:49:35.164Z,2.52
2022-12-22T00:54:56.308Z,2.47
2022-12-22T01:00:18.290Z,2.47
2022-12-22T01:05:39.449Z,2.50
2022-12-22T01:11:00.047Z,2.47
2022-12-22T01:16:22.368Z,2.48
2022-12-22T01:21:43.473Z,2.38
2022-12-22T01:27:04.113Z,2.45
2022-12-22T01:32:30.568Z,2.50
2022-12-22T01:37:50.948Z,2.44
2022-12-22T01:43:11.486Z,2.44
2022-12-22T01:48:34.662Z,2.51
2022-12-22T01:53:55.439Z,2.58
2022-12-22T01:59:21.315Z,2.58
2022-12-22T02:04:49.138Z,2.58
2022-12-22T02:10:24.026Z,2.64
2022-12-22T02:15:51.279Z,2.81
2022-12-22T02:21:19.534Z,2.66
2022-12-22T02:26:47.826Z,2.78
2022-12-22T02:32:08.674Z,2.71
2022-12-22T02:37:39.028Z,2.88
2022-12-22T02:43:09.004Z,2.70
2022-12-22T02:48:34.867Z,2.81
2022-12-22T02:53:58.185Z,2.57
2022-12-22T02:59:20.261Z,2.61
2022-12-22T03:04:41.044Z,2.63
2022-12-22T03:10:01.766Z,2.76
2022-12-22T03:15:24.955Z,2.65
2022-12-22T03:20:45.452Z,2.89
2022-12-22T03:25:53.030Z,3.09
2022-12-22T03:31:00.512Z,3.09
2022-12-22T03:36:04.455Z,2.96
2022-12-22T03:41:07.743Z,3.05
2022-12-22T03:46:32.700Z,2.87
2022-12-22T03:51:37.103Z,2.89
2022-12-22T03:56:40.547Z,2.90
2022-12-22T04:01:47.369Z,2.90
2022-12-22T04:06:51.205Z,2.98
2022-12-22T04:12:11.901Z,2.98
2022-12-22T04:17:16.601Z,3.01
2022-12-22T04:22:20.036Z,2.97
2022-12-22T04:27:23.517Z,3.08
2022-12-22T04:32:28.434Z,3.14
2022-12-22T04:37:31.560Z,3.29
2022-12-22T04:42:35.468Z,3.04
2022-12-22T04:47:40.626Z,2.81
2022-12-22T04:52:44.126Z,2.88
2022-12-22T04:57:47.575Z,3.04
2022-12-22T05:02:53.869Z,3.19
2022-12-22T05:07:57.327Z,3.10
2022-12-22T05:13:00.884Z,3.11
2022-12-22T05:18:06.063Z,3.19
2022-12-22T05:23:09.397Z,3.11
2022-12-22T05:28:12.936Z,3.21
2022-12-22T05:33:17.722Z,3.10
2022-12-22T05:38:21.194Z,3.11
2022-12-22T05:43:24.720Z,3.30
2022-12-22T05:48:35.297Z,3.25
2022-12-22T05:53:41.329Z,3.27
2022-12-22T05:58:44.828Z,3.14
2022-12-22T06:03:53.226Z,3.29
2022-12-22T06:08:59.672Z,3.39
2022-12-22T06:14:03.011Z,3.54
2022-12-22T06:19:08.320Z,3.69
2022-12-22T06:24:11.875Z,3.58
2022-12-22T06:29:15.384Z,3.70
2022-12-22T06:34:20.417Z,3.86
2022-12-22T06:39:24.078Z,3.92
2022-12-22T06:44:27.439Z,3.86
2022-12-22T06:49:32.314Z,3.79
2022-12-22T06:54:35.818Z,4.01
2022-12-22T06:59:39.288Z,3.87
2022-12-22T07:04:45.631Z,3.75
2022-12-22T07:09:49.199Z,3.64
2022-12-22T07:14:52.641Z,3.71
2022-12-22T07:19:57.376Z,3.78
2022-12-22T07:25:00.677Z,3.73
2022-12-22T07:30:04.041Z,3.65
2022-12-22T07:35:10.080Z,3.66
2022-12-22T07:40:13.851Z,3.60
2022-12-22T07:45:19.114Z,3.72
2022-12-22T07:50:28.199Z,3.70
2022-12-22T07:55:36.634Z,3.48
2022-12-22T08:00:39.975Z,3.55
2022-12-22T08:05:45.845Z,3.75
2022-12-22T08:10:49.179Z,3.54
2022-12-22T08:15:52.668Z,3.62
2022-12-22T08:20:57.612Z,3.72
2022-12-22T08:26:04.118Z,3.40
2022-12-22T08:31:08.785Z,3.62
2022-12-22T08:36:14.293Z,3.65
2022-12-22T08:41:39.514Z,3.58
2022-12-22T08:46:43.083Z,3.61
2022-12-22T08:51:48.567Z,3.73
2022-12-22T08:56:53.173Z,3.51
2022-12-22T09:01:56.768Z,3.47
2022-12-22T09:07:02.769Z,3.58
2022-12-22T09:12:06.779Z,3.61
2022-12-22T09:17:10.127Z,3.67
2022-12-22T09:22:15.001Z,3.82
2022-12-22T09:27:18.143Z,4.09
2022-12-22T09:32:21.735Z,3.94
2022-12-22T09:37:26.559Z,3.94
2022-12-22T09:42:35.321Z,4.13
2022-12-22T09:47:40.823Z,4.19
2022-12-22T09:52:50.291Z,4.26
2022-12-22T09:57:55.594Z,4.19
2022-12-22T10:03:06.426Z,4.16
2022-12-22T10:08:14.855Z,4.11
2022-12-22T10:13:19.847Z,4.18
2022-12-22T10:18:25.871Z,4.36
2022-12-22T10:23:32.019Z,4.33
2022-12-22T10:28:39.645Z,4.14
2022-12-22T10:33:47.380Z,4.16
2022-12-22T10:39:00.171Z,4.02
2022-12-22T10:44:07.857Z,4.04
2022-12-22T10:49:18.624Z,4.01
2022-12-22T10:54:32.239Z,3.83
2022-12-22T10:59:35.985Z,3.84
2022-12-22T11:04:39.320Z,3.91
2022-12-22T11:09:44.333Z,4.09
2022-12-22T11:14:56.319Z,4.08
2022-12-22T11:20:18.210Z,4.04
2022-12-22T11:25:33.131Z,3.96
2022-12-22T11:30:47.255Z,3.98
2022-12-22T11:35:59.052Z,4.00
2022-12-22T11:41:12.412Z,3.99
2022-12-22T11:46:25.288Z,3.89
2022-12-22T11:51:55.188Z,3.92
2022-12-22T11:57:07.985Z,3.66
2022-12-22T12:02:34.656Z,3.65
2022-12-22T12:07:42.058Z,3.61
2022-12-22T12:12:52.985Z,3.63
2022-12-22T12:18:17.077Z,3.77
2022-12-22T12:23:41.388Z,3.95
2022-12-22T12:28:53.815Z,3.88
2022-12-22T12:34:02.273Z,3.77
2022-12-22T12:39:14.854Z,3.87
2022-12-22T12:44:24.473Z,3.84
2022-12-22T12:49:56.773Z,3.79
2022-12-22T12:55:31.406Z,3.83
2022-12-22T13:00:52.553Z,3.86
2022-12-22T13:06:02.231Z,3.94
2022-12-22T13:12:10.468Z,4.07
2022-12-22T13:17:41.787Z,3.93
2022-12-22T13:22:45.765Z,3.78
2022-12-22T13:27:50.657Z,3.86
2022-12-22T13:32:55.458Z,4.00
2022-12-22T13:37:58.752Z,3.69
2022-12-22T13:43:06.160Z,3.81
2022-12-22T13:48:19.114Z,3.76
2022-12-22T13:54:07.769Z,3.67
2022-12-22T13:59:01.157Z,3.60
2022-12-22T14:04:07.958Z,3.36
2022-12-22T14:09:16.974Z,3.42
2022-12-22T14:14:23.546Z,3.53
2022-12-22T14:19:32.280Z,3.51
2022-12-22T14:24:43.370Z,3.50
2022-12-22T14:29:47.141Z,3.65
2022-12-22T14:34:55.559Z,3.85
2022-12-22T14:39:59.117Z,3.58
2022-12-22T14:45:02.852Z,3.67
2022-12-22T14:50:19.728Z,3.66
2022-12-22T14:55:27.487Z,3.55
2022-12-22T15:00:36.561Z,3.55
2022-12-22T15:05:44.717Z,3.48
2022-12-22T15:10:48.217Z,3.46
2022-12-22T15:15:53.538Z,3.47
2022-12-22T15:20:59.123Z,3.49
2022-12-22T15:26:02.463Z,3.27
2022-12-22T15:31:14.401Z,3.44
2022-12-22T15:36:19.300Z,3.49
2022-12-22T15:41:22.720Z,3.31
2022-12-22T15:46:26.269Z,3.52
2022-12-22T15:51:33.411Z,3.62
2022-12-22T15:56:37.530Z,3.72
2022-12-22T16:01:40.912Z,3.72
2022-12-22T16:06:46.450Z,3.66
2022-12-22T16:11:50.062Z,3.61
2022-12-22T16:16:53.539Z,3.62
2022-12-22T16:21:58.405Z,3.76
2022-12-22T16:27:01.684Z,3.91
2022-12-22T16:32:18.042Z,3.73
2022-12-22T16:37:23.389Z,3.61
2022-12-22T16:47:47.430Z,3.67
2022-12-22T16:52:52.282Z,3.58
2022-12-22T16:57:55.855Z,3.90
2022-12-22T17:03:04.323Z,3.79
2022-12-22T17:08:14.497Z,3.75
2022-12-22T17:13:19.144Z,3.63
2022-12-22T17:18:26.106Z,3.55
2022-12-22T17:23:35.133Z,3.51
2022-12-22T17:28:39.758Z,3.45
2022-12-22T17:33:43.132Z,3.54
2022-12-22T17:38:47.868Z,3.47
2022-12-22T17:43:51.304Z,3.42
2022-12-22T17:48:54.848Z,3.40
2022-12-22T17:54:00.676Z,3.48
2022-12-22T17:59:03.982Z,3.25
2022-12-22T18:04:09.965Z,3.22
2022-12-22T18:09:21.791Z,3.49
2022-12-22T18:14:25.200Z,3.47
2022-12-22T18:19:28.663Z,3.48
2022-12-22T18:24:33.627Z,3.58
2022-12-22T18:29:36.658Z,3.55
2022-12-22T18:34:40.962Z,3.32
2022-12-22T18:39:46.447Z,3.46
2022-12-22T18:44:50.259Z,3.21
2022-12-22T18:49:53.650Z,3.30
2022-12-22T18:54:58.588Z,3.17
2022-12-22T19:00:01.919Z,3.42
2022-12-22T19:05:14.777Z,3.26
2022-12-22T19:10:22.981Z,3.31
2022-12-22T19:15:30.128Z,3.21
2022-12-22T19:20:34.023Z,3.32
2022-12-22T19:25:38.924Z,3.47
2022-12-22T19:30:42.148Z,3.66
2022-12-22T19:35:45.666Z,3.36
2022-12-22T19:40:51.932Z,3.51
2022-12-22T19:45:55.932Z,3.31
2022-12-22T19:50:59.531Z,3.32
2022-12-22T19:56:04.635Z,3.29
2022-12-22T20:01:11.752Z,3.08
2022-12-22T20:06:15.284Z,3.06
2022-12-22T20:11:21.311Z,3.22
2022-12-22T20:16:25.249Z,3.09
2022-12-22T20:21:31.121Z,3.17
2022-12-22T20:26:36.136Z,3.14
2022-12-22T20:31:39.336Z,3.14
2022-12-22T20:36:44.404Z,3.27
2022-12-22T20:41:53.406Z,3.26
2022-12-22T20:46:56.981Z,3.22
2022-12-22T20:52:00.275Z,3.26
2022-12-22T20:57:05.293Z,3.33
2022-12-22T21:02:22.384Z,3.46
2022-12-22T21:07:25.945Z,3.40
2022-12-22T21:12:30.657Z,3.30
2022-12-22T21:17:34.227Z,3.23
2022-12-22T21:22:37.744Z,3.11
2022-12-22T21:27:45.098Z,3.18
2022-12-22T21:32:48.875Z,3.13
2022-12-22T21:37:53.943Z,3.21
2022-12-22T21:42:59.073Z,3.19
2022-12-22T21:48:02.363Z,3.13
2022-12-22T21:53:05.764Z,3.08
2022-12-22T21:58:15.275Z,3.19
2022-12-22T22:03:18.914Z,3.15
2022-12-22T22:08:22.272Z,3.13
2022-12-22T22:13:27.124Z,2.99
2022-12-22T22:18:30.710Z,3.15
2022-12-22T22:23:34.025Z,3.03
2022-12-22T22:28:38.855Z,3.16
2022-12-22T22:33:42.319Z,2.99
2022-12-22T22:38:45.697Z,3.11
2022-12-22T22:43:50.524Z,3.10
2022-12-22T22:48:53.862Z,3.12
2022-12-22T22:53:57.310Z,3.05
2022-12-22T22:59:02.034Z,3.17
2022-12-22T23:04:05.828Z,3.14
2022-12-22T23:09:09.593Z,3.04
2022-12-22T23:14:14.583Z,3.20
2022-12-22T23:19:18.165Z,3.32
2022-12-22T23:24:21.550Z,3.02
2022-12-22T23:29:26.472Z,3.21
2022-12-22T23:34:29.657Z,3.09
2022-12-22T23:39:33.057Z,2.99
2022-12-22T23:44:37.783Z,3.05
2022-12-22T23:49:41.184Z,3.14
2022-12-22T23:54:44.610Z,3.14
2022-12-22T23:59:49.480Z,3.37
